createdAt,value
2018-01-03T00:00:54.966Z,2.60
2018-01-03T00:03:22.786Z,7.10
2018-01-03T00:05:50.588Z,8.30
2018-01-03T00:08:18.399Z,7.57
2018-01-03T00:10:46.165Z,9.10
2018-01-03T00:13:13.919Z,6.07
2018-01-03T00:15:41.712Z,4.60
2018-01-03T00:18:09.548Z,9.23
2018-01-03T00:20:37.309Z,10.70
2018-01-03T00:23:05.144Z,11.53
2018-01-03T00:25:33.227Z,6.20
2018-01-03T00:28:01.067Z,8.10
2018-01-03T00:30:28.848Z,8.80
2018-01-03T00:32:56.633Z,8.97
2018-01-03T00:35:24.381Z,11.23
2018-01-03T00:37:52.131Z,5.50
2018-01-03T00:40:19.954Z,4.07
2018-01-03T00:42:47.735Z,3.67
2018-01-03T00:45:15.543Z,3.23
2018-01-03T00:47:43.363Z,2.37
2018-01-03T00:50:11.163Z,3.00
2018-01-03T00:52:38.930Z,1.77
2018-01-03T00:55:06.677Z,4.60
2018-01-03T00:57:34.485Z,4.60
2018-01-03T01:00:02.247Z,9.20
2018-01-03T01:02:30.131Z,5.10
2018-01-03T01:04:57.897Z,3.17
2018-01-03T01:07:25.672Z,4.93
2018-01-03T01:09:53.504Z,6.30
2018-01-03T01:12:21.292Z,4.10
2018-01-03T01:14:49.039Z,6.60
2018-01-03T01:17:16.816Z,7.67
2018-01-03T01:19:44.602Z,3.00
2018-01-03T01:22:12.446Z,5.77
2018-01-03T01:24:40.237Z,8.33
2018-01-03T01:27:08.040Z,9.43
2018-01-03T01:29:35.828Z,3.63
2018-01-03T01:32:03.620Z,3.70
2018-01-03T01:34:31.456Z,7.83
2018-01-03T01:36:59.288Z,1.80
2018-01-03T01:39:27.073Z,3.00
2018-01-03T01:41:54.902Z,6.93
2018-01-03T01:44:22.647Z,6.83
2018-01-03T01:46:50.428Z,6.27
2018-01-03T01:49:18.258Z,7.60
2018-01-03T01:51:46.090Z,6.57
2018-01-03T01:54:13.855Z,11.87
2018-01-03T01:56:41.694Z,6.63
2018-01-03T01:59:09.490Z,11.38
2018-01-03T02:01:37.251Z,11.87
2018-01-03T02:04:05.040Z,10.40
2018-01-03T02:06:32.855Z,12.20
2018-01-03T02:09:00.669Z,11.80
2018-01-03T02:11:28.518Z,10.07
2018-01-03T02:13:57.132Z,12.93
2018-01-03T02:16:25.080Z,13.00
2018-01-03T02:18:52.867Z,8.10
2018-01-03T02:21:20.756Z,5.37
2018-01-03T02:23:48.608Z,9.23
2018-01-03T02:26:16.425Z,4.47
2018-01-03T02:28:44.275Z,5.20
2018-01-03T02:31:12.069Z,4.63
2018-01-03T02:33:40.688Z,8.30
2018-01-03T02:36:08.556Z,6.20
2018-01-03T02:38:36.438Z,4.10
2018-01-03T02:41:04.239Z,9.33
2018-01-03T02:43:32.135Z,4.67
2018-01-03T02:45:59.958Z,8.43
2018-01-03T02:48:27.762Z,14.60
2018-01-03T02:50:55.597Z,7.90
2018-01-03T02:53:23.520Z,14.10
2018-01-03T02:55:51.341Z,7.17
2018-01-03T02:58:19.216Z,10.13
2018-01-03T03:00:47.091Z,6.57
2018-01-03T03:03:15.640Z,8.00
2018-01-03T03:05:43.412Z,2.87
2018-01-03T03:08:11.239Z,4.00
2018-01-03T03:10:39.108Z,2.30
2018-01-03T03:13:06.977Z,4.37
2018-01-03T03:15:34.820Z,4.47
2018-01-03T03:18:02.633Z,8.10
2018-01-03T03:20:30.498Z,1.70
2018-01-03T03:22:58.362Z,2.20
2018-01-03T03:25:26.169Z,2.00
2018-01-03T03:27:53.996Z,5.60
2018-01-03T03:30:21.842Z,2.67
2018-01-03T03:32:49.677Z,3.37
2018-01-03T03:35:17.542Z,8.60
2018-01-03T03:37:45.491Z,9.60
2018-01-03T03:40:13.279Z,4.27
2018-01-03T03:42:41.093Z,6.27
2018-01-03T03:45:08.947Z,4.93
2018-01-03T03:47:36.769Z,5.30
2018-01-03T03:50:04.609Z,5.57
2018-01-03T03:52:32.536Z,6.80
2018-01-03T03:55:00.372Z,9.90
2018-01-03T03:57:28.183Z,14.63
2018-01-03T03:59:55.967Z,7.47
2018-01-03T04:02:23.862Z,8.63
2018-01-03T04:04:51.708Z,7.60
2018-01-03T04:07:20.316Z,3.37
2018-01-03T04:09:48.169Z,5.20
2018-01-03T04:12:16.036Z,2.10
2018-01-03T04:14:43.989Z,4.27
2018-01-03T04:17:11.918Z,3.83
2018-01-03T04:19:39.876Z,3.10
2018-01-03T04:22:07.768Z,2.70
2018-01-03T04:24:35.570Z,3.37
2018-01-03T04:27:03.397Z,1.20
2018-01-03T04:29:31.207Z,2.07
2018-01-03T04:31:59.023Z,6.33
2018-01-03T04:34:26.827Z,3.23
2018-01-03T04:36:54.645Z,4.40
2018-01-03T04:39:22.474Z,1.53
2018-01-03T04:41:50.327Z,1.43
2018-01-03T04:44:18.194Z,3.50
2018-01-03T04:46:46.025Z,4.50
2018-01-03T04:49:13.838Z,8.30
2018-01-03T04:51:41.698Z,1.57
2018-01-03T04:54:09.584Z,1.83
2018-01-03T04:56:37.395Z,1.83
2018-01-03T04:59:05.956Z,5.37
2018-01-03T05:01:33.726Z,1.67
2018-01-03T05:04:01.539Z,1.40
2018-01-03T05:06:29.340Z,1.30
2018-01-03T05:08:57.209Z,1.20
2018-01-03T05:11:25.604Z,1.73
2018-01-03T05:13:53.413Z,2.10
2018-01-03T05:16:21.311Z,5.17
2018-01-03T05:18:49.138Z,1.50
2018-01-03T05:21:16.966Z,4.47
2018-01-03T05:23:44.778Z,2.70
2018-01-03T05:26:12.618Z,2.17
2018-01-03T05:28:41.218Z,4.90
2018-01-03T05:31:09.042Z,8.53
2018-01-03T05:33:36.870Z,9.27
2018-01-03T05:36:04.682Z,3.53
2018-01-03T05:38:32.497Z,3.80
2018-01-03T05:41:00.375Z,2.80
2018-01-03T05:43:28.176Z,2.07
2018-01-03T05:45:56.090Z,12.40
2018-01-03T05:48:23.979Z,2.50
2018-01-03T05:50:51.859Z,1.60
2018-01-03T05:53:19.738Z,4.00
2018-01-03T05:55:47.580Z,2.30
2018-01-03T05:58:15.507Z,4.90
2018-01-03T06:00:43.346Z,3.23
2018-01-03T06:03:11.258Z,4.27
2018-01-03T06:05:39.104Z,6.10
2018-01-03T06:08:06.913Z,6.67
2018-01-03T06:10:34.729Z,8.27
2018-01-03T06:13:03.314Z,4.27
2018-01-03T06:15:31.179Z,7.17
2018-01-03T06:17:59.028Z,6.07
2018-01-03T06:20:27.030Z,12.83
2018-01-03T06:22:54.880Z,13.20
2018-01-03T06:25:22.672Z,10.90
2018-01-03T06:27:50.466Z,11.10
2018-01-03T06:30:18.330Z,10.07
2018-01-03T06:32:46.135Z,10.07
2018-01-03T06:35:14.731Z,18.83
2018-01-03T06:37:42.544Z,26.23
2018-01-03T06:40:10.401Z,14.03
2018-01-03T06:42:38.287Z,11.10
2018-01-03T06:45:06.117Z,13.00
2018-01-03T06:47:33.956Z,17.13
2018-01-03T06:50:01.852Z,16.17
2018-01-03T06:52:29.712Z,16.83
2018-01-03T06:54:57.528Z,11.97
2018-01-03T06:57:25.336Z,9.93
2018-01-03T06:59:53.135Z,23.67
2018-01-03T07:02:21.003Z,10.63
2018-01-03T07:04:48.830Z,12.70
2018-01-03T07:07:16.818Z,11.70
2018-01-03T07:09:44.603Z,10.30
2018-01-03T07:12:12.447Z,23.60
2018-01-03T07:14:40.259Z,11.07
2018-01-03T07:17:08.088Z,17.70
2018-01-03T07:19:36.721Z,12.13
2018-01-03T07:22:05.288Z,15.37
2018-01-03T07:24:33.191Z,10.73
2018-01-03T07:27:01.061Z,16.53
2018-01-03T07:29:28.857Z,15.03
2018-01-03T07:31:56.881Z,25.93
2018-01-03T07:34:24.728Z,11.40
2018-01-03T07:36:52.591Z,18.63
2018-01-03T07:39:20.488Z,11.77
2018-01-03T07:41:48.328Z,13.63
2018-01-03T07:44:16.926Z,7.90
2018-01-03T07:46:44.830Z,12.43
2018-01-03T07:49:12.656Z,14.90
2018-01-03T07:51:41.221Z,12.30
2018-01-03T07:54:09.033Z,8.93
2018-01-03T07:56:36.886Z,11.10
2018-01-03T07:59:04.749Z,15.40
2018-01-03T08:01:32.548Z,18.10
2018-01-03T08:04:00.336Z,16.40
2018-01-03T08:06:28.168Z,16.23
2018-01-03T08:08:56.004Z,13.57
2018-01-03T08:11:23.779Z,20.43
2018-01-03T08:13:51.590Z,16.43
2018-01-03T08:16:19.447Z,17.83
2018-01-03T08:18:47.284Z,13.70
2018-01-03T08:21:15.120Z,23.00
2018-01-03T08:23:42.924Z,12.80
2018-01-03T08:26:10.790Z,18.90
2018-01-03T08:28:38.576Z,18.00
2018-01-03T08:31:06.494Z,17.73
2018-01-03T08:33:34.392Z,22.27
2018-01-03T08:36:02.285Z,20.17
2018-01-03T08:38:30.219Z,27.53
2018-01-03T08:40:58.047Z,15.13
2018-01-03T08:43:25.943Z,36.23
2018-01-03T08:45:53.796Z,17.03
2018-01-03T08:48:21.640Z,30.40
2018-01-03T08:50:49.450Z,24.27
2018-01-03T08:53:17.283Z,28.87
2018-01-03T08:55:45.065Z,22.53
2018-01-03T08:58:13.800Z,40.57
2018-01-03T09:00:41.605Z,26.53
2018-01-03T09:03:12.292Z,26.73
2018-01-03T09:05:40.134Z,21.03
2018-01-03T09:08:08.007Z,20.27
2018-01-03T09:10:35.791Z,23.00
2018-01-03T09:13:03.597Z,33.90
2018-01-03T09:15:31.491Z,20.60
2018-01-03T09:17:59.338Z,16.00
2018-01-03T09:20:27.134Z,15.87
2018-01-03T09:22:54.951Z,23.37
2018-01-03T09:25:22.773Z,18.83
2018-01-03T09:27:50.635Z,34.03
2018-01-03T09:30:18.448Z,23.53
2018-01-03T09:32:46.250Z,19.10
2018-01-03T09:35:14.081Z,28.43
2018-01-03T09:37:41.902Z,16.00
2018-01-03T09:40:09.783Z,20.57
2018-01-03T09:42:37.630Z,19.90
2018-01-03T09:45:05.494Z,21.80
2018-01-03T09:47:33.324Z,27.17
2018-01-03T09:50:01.191Z,11.73
2018-01-03T09:52:29.030Z,17.87
2018-01-03T09:54:56.832Z,24.83
2018-01-03T09:57:24.684Z,11.30
2018-01-03T09:59:52.571Z,23.10
2018-01-03T10:02:20.418Z,25.07
2018-01-03T10:04:48.226Z,26.07
2018-01-03T10:07:16.027Z,18.27
2018-01-03T10:09:44.588Z,25.07
2018-01-03T10:12:12.404Z,13.40
2018-01-03T10:14:40.208Z,16.70
2018-01-03T10:17:08.103Z,11.87
2018-01-03T10:19:36.651Z,19.93
2018-01-03T10:22:04.446Z,21.77
2018-01-03T10:24:33.038Z,31.50
2018-01-03T10:27:01.717Z,26.37
2018-01-03T10:29:30.314Z,27.33
2018-01-03T10:31:58.860Z,20.53
2018-01-03T10:34:26.706Z,22.37
2018-01-03T10:36:54.684Z,18.80
2018-01-03T10:39:22.531Z,32.63
2018-01-03T10:41:50.501Z,20.90
2018-01-03T10:44:18.380Z,24.43
2018-01-03T10:46:46.197Z,26.20
2018-01-03T10:49:14.047Z,19.37
2018-01-03T10:51:42.687Z,20.47
2018-01-03T10:54:10.932Z,29.23
2018-01-03T10:56:39.581Z,24.13
2018-01-03T10:59:08.321Z,14.10
2018-01-03T11:01:36.114Z,19.70
2018-01-03T11:04:03.975Z,19.63
2018-01-03T11:06:31.828Z,13.27
2018-01-03T11:08:59.688Z,12.27
2018-01-03T11:11:27.586Z,22.53
2018-01-03T11:13:55.358Z,15.93
2018-01-03T11:16:23.185Z,19.50
2018-01-03T11:18:51.137Z,22.20
2018-01-03T11:21:19.018Z,17.73
2018-01-03T11:23:46.831Z,18.67
2018-01-03T11:26:15.483Z,16.43
2018-01-03T11:28:43.313Z,16.50
2018-01-03T11:31:11.119Z,24.63
2018-01-03T11:33:38.903Z,25.13
2018-01-03T11:36:06.712Z,19.73
2018-01-03T11:38:34.615Z,16.17
2018-01-03T11:41:02.412Z,16.40
2018-01-03T11:43:30.191Z,16.12
2018-01-03T11:45:58.797Z,10.83
2018-01-03T11:48:27.413Z,32.10
2018-01-03T11:50:55.337Z,20.23
2018-01-03T11:53:23.156Z,17.20
2018-01-03T11:55:51.028Z,18.60
2018-01-03T11:58:18.893Z,19.60
2018-01-03T12:00:46.733Z,17.93
2018-01-03T12:03:14.612Z,19.60
2018-01-03T12:05:42.421Z,15.87
2018-01-03T12:08:11.082Z,19.93
2018-01-03T12:10:38.932Z,16.43
2018-01-03T12:13:06.851Z,12.80
2018-01-03T12:15:34.738Z,18.77
2018-01-03T12:18:02.575Z,21.40
2018-01-03T12:20:30.402Z,23.17
2018-01-03T12:22:59.099Z,16.97
2018-01-03T12:25:26.972Z,20.53
2018-01-03T12:27:55.584Z,23.13
2018-01-03T12:30:23.500Z,18.73
2018-01-03T12:32:51.356Z,16.90
2018-01-03T12:35:19.212Z,13.07
2018-01-03T12:37:47.114Z,30.00
2018-01-03T12:40:15.023Z,31.33
2018-01-03T12:42:42.876Z,18.90
2018-01-03T12:45:10.793Z,20.07
2018-01-03T12:47:38.654Z,23.17
2018-01-03T12:50:06.532Z,18.20
2018-01-03T12:52:34.407Z,19.03
2018-01-03T12:55:02.287Z,19.60
2018-01-03T12:57:30.941Z,20.93
2018-01-03T12:59:58.768Z,17.30
2018-01-03T13:02:26.662Z,17.83
2018-01-03T13:04:54.474Z,31.70
2018-01-03T13:07:23.059Z,16.00
2018-01-03T13:09:51.759Z,18.40
2018-01-03T13:12:19.610Z,17.63
2018-01-03T13:14:48.254Z,17.53
2018-01-03T13:17:16.099Z,12.67
2018-01-03T13:19:43.957Z,20.60
2018-01-03T13:22:11.854Z,15.50
2018-01-03T13:24:39.660Z,18.67
2018-01-03T13:27:08.246Z,23.70
2018-01-03T13:29:36.375Z,14.10
2018-01-03T13:32:04.221Z,14.20
2018-01-03T13:34:32.033Z,15.37
2018-01-03T13:36:59.915Z,16.23
2018-01-03T13:39:28.546Z,17.40
2018-01-03T13:41:56.393Z,12.67
2018-01-03T13:44:24.209Z,15.37
2018-01-03T13:46:52.000Z,14.17
2018-01-03T13:49:20.639Z,17.40
2018-01-03T13:51:48.453Z,15.60
2018-01-03T13:54:17.061Z,32.20
2018-01-03T13:56:44.894Z,17.07
2018-01-03T13:59:13.493Z,12.37
2018-01-03T14:01:41.376Z,20.13
2018-01-03T14:04:09.155Z,19.73
2018-01-03T14:06:37.046Z,16.50
2018-01-03T14:09:04.948Z,16.83
2018-01-03T14:11:32.769Z,16.27
2018-01-03T14:14:00.643Z,11.90
2018-01-03T14:16:28.473Z,18.60
2018-01-03T14:18:56.281Z,19.23
2018-01-03T14:21:24.136Z,19.07
2018-01-03T14:23:52.001Z,15.37
2018-01-03T14:26:19.898Z,14.83
2018-01-03T14:28:48.558Z,16.13
2018-01-03T14:31:16.431Z,25.33
2018-01-03T14:33:44.412Z,16.33
2018-01-03T14:36:13.005Z,19.17
2018-01-03T14:38:41.634Z,21.20
2018-01-03T14:41:09.434Z,15.43
2018-01-03T14:43:37.374Z,15.70
2018-01-03T14:46:05.272Z,25.70
2018-01-03T14:48:33.096Z,12.50
2018-01-03T14:51:00.941Z,22.20
2018-01-03T14:53:28.809Z,17.53
2018-01-03T14:55:56.623Z,27.40
2018-01-03T14:58:24.474Z,20.47
2018-01-03T15:00:53.157Z,13.13
2018-01-03T15:03:20.998Z,23.43
2018-01-03T15:05:48.785Z,16.40
2018-01-03T15:08:16.643Z,26.73
2018-01-03T15:10:44.478Z,23.77
2018-01-03T15:13:12.413Z,17.70
2018-01-03T15:15:40.272Z,17.10
2018-01-03T15:18:08.081Z,26.07
2018-01-03T15:20:39.925Z,21.27
2018-01-03T15:23:07.948Z,15.53
2018-01-03T15:25:35.803Z,24.87
2018-01-03T15:28:03.653Z,16.80
2018-01-03T15:30:35.307Z,18.53
2018-01-03T15:33:03.189Z,15.37
2018-01-03T15:35:31.088Z,23.77
2018-01-03T15:37:58.955Z,18.20
2018-01-03T15:40:26.822Z,21.23
2018-01-03T15:42:54.656Z,22.90
2018-01-03T15:45:22.479Z,16.17
2018-01-03T15:47:50.374Z,21.80
2018-01-03T15:50:18.190Z,22.97
2018-01-03T15:52:46.074Z,14.83
2018-01-03T15:55:14.803Z,17.27
2018-01-03T15:57:42.724Z,21.30
2018-01-03T16:00:11.352Z,17.97
2018-01-03T16:02:39.148Z,23.83
2018-01-03T16:05:07.086Z,31.80
2018-01-03T16:07:34.971Z,22.70
2018-01-03T16:10:02.828Z,21.33
2018-01-03T16:12:37.887Z,29.33
2018-01-03T16:15:06.115Z,20.13
2018-01-03T16:17:33.944Z,26.43
2018-01-03T16:20:02.539Z,30.50
2018-01-03T16:22:30.425Z,19.87
2018-01-03T16:24:58.305Z,19.20
2018-01-03T16:27:27.341Z,28.77
2018-01-03T16:29:55.275Z,20.67
2018-01-03T16:32:23.173Z,21.27
2018-01-03T16:34:51.084Z,20.63
2018-01-03T16:37:19.010Z,19.73
2018-01-03T16:39:48.548Z,21.63
2018-01-03T16:42:18.650Z,23.80
2018-01-03T16:44:46.621Z,26.73
2018-01-03T16:47:14.587Z,21.90
2018-01-03T16:49:42.464Z,18.50
2018-01-03T16:52:15.967Z,32.57
2018-01-03T16:54:43.901Z,29.00
2018-01-03T16:57:11.796Z,31.03
2018-01-03T16:59:40.707Z,23.10
2018-01-03T17:02:08.579Z,21.40
2018-01-03T17:04:36.473Z,24.63
2018-01-03T17:07:05.363Z,21.63
2018-01-03T17:09:34.893Z,25.13
2018-01-03T17:12:03.503Z,35.87
2018-01-03T17:14:31.372Z,24.93
2018-01-03T17:16:59.259Z,27.27
2018-01-03T17:19:27.068Z,23.67
2018-01-03T17:21:54.924Z,38.23
2018-01-03T17:24:22.797Z,25.13
2018-01-03T17:26:50.628Z,24.97
2018-01-03T17:29:18.492Z,25.73
2018-01-03T17:31:47.856Z,27.10
2018-01-03T17:34:30.576Z,20.80
2018-01-03T17:36:58.416Z,26.00
2018-01-03T17:39:26.255Z,16.83
2018-01-03T17:41:54.180Z,24.37
2018-01-03T17:44:22.007Z,36.67
2018-01-03T17:46:49.986Z,17.03
2018-01-03T17:49:17.887Z,38.63
2018-01-03T17:51:45.682Z,29.70
2018-01-03T17:54:13.532Z,30.60
2018-01-03T17:56:41.451Z,44.67
2018-01-03T17:59:09.292Z,23.67
2018-01-03T18:01:37.177Z,36.03
2018-01-03T18:04:07.226Z,32.57
2018-01-03T18:06:35.094Z,29.33
2018-01-03T18:09:03.839Z,42.73
2018-01-03T18:11:31.759Z,42.80
2018-01-03T18:13:59.685Z,37.27
2018-01-03T18:16:27.498Z,34.67
2018-01-03T18:18:55.507Z,26.43
2018-01-03T18:21:23.420Z,26.27
2018-01-03T18:23:51.380Z,32.93
2018-01-03T18:26:19.206Z,26.90
2018-01-03T18:28:47.041Z,22.53
2018-01-03T18:31:15.114Z,25.70
2018-01-03T18:33:43.825Z,19.10
2018-01-03T18:36:11.748Z,32.17
2018-01-03T18:38:39.592Z,20.00
2018-01-03T18:41:07.500Z,29.97
2018-01-03T18:43:41.150Z,28.57
2018-01-03T18:46:10.304Z,29.07
2018-01-03T18:48:39.082Z,23.07
2018-01-03T18:51:06.899Z,25.20
2018-01-03T18:53:34.714Z,22.70
2018-01-03T18:56:02.611Z,36.67
2018-01-03T18:58:30.491Z,24.93
2018-01-03T19:00:58.370Z,26.50
2018-01-03T19:03:26.954Z,22.47
2018-01-03T19:05:54.830Z,32.40
2018-01-03T19:08:23.510Z,33.50
2018-01-03T19:10:52.121Z,19.40
2018-01-03T19:13:19.921Z,22.20
2018-01-03T19:15:47.824Z,28.93
2018-01-03T19:18:16.456Z,27.50
2018-01-03T19:20:44.258Z,32.67
2018-01-03T19:23:12.063Z,26.90
2018-01-03T19:25:39.873Z,28.57
2018-01-03T19:28:08.340Z,47.57
2018-01-03T19:30:36.324Z,55.63
2018-01-03T19:33:04.196Z,135.33
2018-01-03T19:35:32.061Z,269.07
2018-01-03T19:37:59.901Z,405.13
2018-01-03T19:40:27.746Z,155.83
2018-01-03T19:42:55.583Z,94.07
2018-01-03T19:45:23.400Z,70.77
2018-01-03T19:47:51.178Z,60.17
2018-01-03T19:50:18.979Z,74.87
2018-01-03T19:52:47.528Z,55.67
2018-01-03T19:55:15.334Z,52.77
2018-01-03T19:57:43.984Z,46.37
2018-01-03T20:00:11.844Z,38.07
2018-01-03T20:02:39.620Z,49.00
2018-01-03T20:05:07.440Z,33.73
2018-01-03T20:07:35.248Z,31.23
2018-01-03T20:10:03.029Z,29.87
2018-01-03T20:12:30.812Z,33.73
2018-01-03T20:14:59.360Z,29.00
2018-01-03T20:17:27.175Z,30.60
2018-01-03T20:19:54.959Z,35.23
2018-01-03T20:22:24.286Z,30.47
2018-01-03T20:24:52.127Z,24.90
2018-01-03T20:27:19.916Z,37.63
2018-01-03T20:29:47.710Z,29.00
2018-01-03T20:32:16.381Z,26.30
2018-01-03T20:34:44.294Z,28.60
2018-01-03T20:37:12.158Z,28.57
2018-01-03T20:39:40.023Z,25.43
2018-01-03T20:42:07.808Z,24.30
2018-01-03T20:44:35.580Z,23.30
2018-01-03T20:47:03.555Z,24.63
2018-01-03T20:49:31.355Z,21.10
2018-01-03T20:51:59.897Z,23.87
2018-01-03T20:54:27.727Z,22.83
2018-01-03T20:56:55.563Z,24.57
2018-01-03T20:59:23.344Z,28.03
2018-01-03T21:01:51.886Z,32.13
2018-01-03T21:04:19.671Z,32.53
2018-01-03T21:06:47.472Z,28.87
2018-01-03T21:09:15.262Z,24.97
2018-01-03T21:11:43.100Z,27.17
2018-01-03T21:14:11.072Z,33.17
2018-01-03T21:16:38.862Z,13.13
2018-01-03T21:19:06.653Z,23.17
2018-01-03T21:21:34.436Z,25.20
2018-01-03T21:24:03.085Z,21.90
2018-01-03T21:26:30.843Z,31.23
2018-01-03T21:28:58.627Z,19.50
2018-01-03T21:31:26.408Z,19.80
2018-01-03T21:33:54.200Z,35.47
2018-01-03T21:36:21.956Z,24.27
2018-01-03T21:38:49.737Z,41.43
2018-01-03T21:41:17.579Z,36.87
2018-01-03T21:43:46.105Z,33.20
2018-01-03T21:46:13.933Z,25.50
2018-01-03T21:48:42.460Z,20.27
2018-01-03T21:51:10.272Z,25.10
2018-01-03T21:53:38.873Z,21.53
2018-01-03T21:56:06.719Z,24.33
2018-01-03T21:58:34.532Z,27.47
2018-01-03T22:01:02.428Z,22.00
2018-01-03T22:03:30.308Z,35.93
2018-01-03T22:05:58.155Z,27.77
2018-01-03T22:08:25.947Z,26.20
2018-01-03T22:10:53.846Z,22.93
2018-01-03T22:13:21.982Z,21.73
2018-01-03T22:15:50.929Z,38.57
2018-01-03T22:18:18.819Z,33.27
2018-01-03T22:20:46.707Z,31.80
2018-01-03T22:23:15.294Z,32.88
2018-01-03T22:25:43.894Z,33.33
2018-01-03T22:28:11.667Z,36.27
